sensor_id;sensor_type;location;lat;lon;timestamp;temperature;humidity
20162;DHT22;51382;53.180;15.414;2023-01-19T00:01:17;-1.20;99.90
20162;DHT22;51382;53.180;15.414;2023-01-19T00:16:33;-1.40;99.90
20162;DHT22;51382;53.180;15.414;2023-01-19T00:31:52;-1.70;99.90
20162;DHT22;51382;53.180;15.414;2023-01-19T00:47:12;-1.80;99.90
20162;DHT22;51382;53.180;15.414;2023-01-19T01:02:37;-2.00;99.90
20162;DHT22;51382;53.180;15.414;2023-01-19T01:17:51;-1.70;99.90
20162;DHT22;51382;53.180;15.414;2023-01-19T01:32:57;-1.60;99.90
20162;DHT22;51382;53.180;15.414;2023-01-19T01:48:10;-1.70;99.90
20162;DHT22;51382;53.180;15.414;2023-01-19T02:03:20;-1.80;99.90
20162;DHT22;51382;53.180;15.414;2023-01-19T02:18:35;-1.70;99.90
20162;DHT22;51382;53.180;15.414;2023-01-19T02:33:46;-1.80;99.90
20162;DHT22;51382;53.180;15.414;2023-01-19T02:48:51;-1.70;99.90
20162;DHT22;51382;53.180;15.414;2023-01-19T03:04:10;-1.50;99.90
20162;DHT22;51382;53.180;15.414;2023-01-19T03:19:23;-1.40;99.90
20162;DHT22;51382;53.180;15.414;2023-01-19T03:34:38;-1.30;99.90
20162;DHT22;51382;53.180;15.414;2023-01-19T03:49:52;-1.20;99.90
20162;DHT22;51382;53.180;15.414;2023-01-19T04:05:00;-1.50;99.90
20162;DHT22;51382;53.180;15.414;2023-01-19T04:20:13;-1.40;99.90
20162;DHT22;51382;53.180;15.414;2023-01-19T04:35:18;-2.00;99.90
20162;DHT22;51382;53.180;15.414;2023-01-19T04:50:38;-2.10;99.90
20162;DHT22;51382;53.180;15.414;2023-01-19T05:05:48;-2.00;99.90
20162;DHT22;51382;53.180;15.414;2023-01-19T05:21:00;-2.20;99.90
20162;DHT22;51382;53.180;15.414;2023-01-19T05:36:04;-2.10;99.90
20162;DHT22;51382;53.180;15.414;2023-01-19T05:51:17;-2.20;99.90
20162;DHT22;51382;53.180;15.414;2023-01-19T06:06:22;-2.30;99.90
20162;DHT22;51382;53.180;15.414;2023-01-19T06:21:33;-2.20;99.90
20162;DHT22;51382;53.180;15.414;2023-01-19T06:36:42;-2.10;99.90
20162;DHT22;51382;53.180;15.414;2023-01-19T06:51:52;-2.20;99.90
20162;DHT22;51382;53.180;15.414;2023-01-19T07:06:59;-2.20;99.90
20162;DHT22;51382;53.180;15.414;2023-01-19T07:22:06;-2.10;99.90
20162;DHT22;51382;53.180;15.414;2023-01-19T07:37:14;-1.90;99.90
20162;DHT22;51382;53.180;15.414;2023-01-19T07:52:28;-1.70;99.90
20162;DHT22;51382;53.180;15.414;2023-01-19T08:07:36;-1.80;99.90
20162;DHT22;51382;53.180;15.414;2023-01-19T08:22:43;-1.70;99.90
20162;DHT22;51382;53.180;15.414;2023-01-19T08:38:05;-1.60;99.90
20162;DHT22;51382;53.180;15.414;2023-01-19T08:53:39;-1.50;99.90
20162;DHT22;51382;53.180;15.414;2023-01-19T09:09:00;-1.20;99.90
20162;DHT22;51382;53.180;15.414;2023-01-19T09:24:08;-1.00;99.90
20162;DHT22;51382;53.180;15.414;2023-01-19T09:39:17;-0.80;99.90
20162;DHT22;51382;53.180;15.414;2023-01-19T09:54:28;-0.80;99.90
20162;DHT22;51382;53.180;15.414;2023-01-19T10:25:22;-0.40;99.90
20162;DHT22;51382;53.180;15.414;2023-01-19T10:40:30;-0.30;99.90
20162;DHT22;51382;53.180;15.414;2023-01-19T10:55:44;-0.30;99.90
20162;DHT22;51382;53.180;15.414;2023-01-19T11:10:58;-0.10;99.90
20162;DHT22;51382;53.180;15.414;2023-01-19T11:26:12;0.00;99.90
20162;DHT22;51382;53.180;15.414;2023-01-19T11:41:25;-0.30;99.90
20162;DHT22;51382;53.180;15.414;2023-01-19T11:56:32;0.10;99.90
20162;DHT22;51382;53.180;15.414;2023-01-19T12:11:46;-0.20;99.90
20162;DHT22;51382;53.180;15.414;2023-01-19T12:27:11;0.00;99.90
20162;DHT22;51382;53.180;15.414;2023-01-19T12:42:23;0.10;99.90
20162;DHT22;51382;53.180;15.414;2023-01-19T12:57:45;0.00;99.90
20162;DHT22;51382;53.180;15.414;2023-01-19T13:13:12;0.10;99.90
20162;DHT22;51382;53.180;15.414;2023-01-19T13:28:29;0.20;99.90
20162;DHT22;51382;53.180;15.414;2023-01-19T13:43:37;0.20;99.90
20162;DHT22;51382;53.180;15.414;2023-01-19T13:58:59;0.40;99.90
20162;DHT22;51382;53.180;15.414;2023-01-19T14:14:24;0.30;99.90
20162;DHT22;51382;53.180;15.414;2023-01-19T14:29:37;0.40;99.90
20162;DHT22;51382;53.180;15.414;2023-01-19T14:44:50;0.50;99.90
20162;DHT22;51382;53.180;15.414;2023-01-19T14:59:56;0.50;99.90
20162;DHT22;51382;53.180;15.414;2023-01-19T15:15:12;0.40;99.90
20162;DHT22;51382;53.180;15.414;2023-01-19T15:30:25;0.70;99.90
20162;DHT22;51382;53.180;15.414;2023-01-19T15:45:37;0.70;99.90
20162;DHT22;51382;53.180;15.414;2023-01-19T16:00:52;0.60;99.90
20162;DHT22;51382;53.180;15.414;2023-01-19T16:16:02;0.50;99.90
20162;DHT22;51382;53.180;15.414;2023-01-19T16:31:18;0.20;99.90
20162;DHT22;51382;53.180;15.414;2023-01-19T16:46:38;0.20;99.90
20162;DHT22;51382;53.180;15.414;2023-01-19T17:02:05;-0.10;99.90
20162;DHT22;51382;53.180;15.414;2023-01-19T17:17:16;0.00;99.90
20162;DHT22;51382;53.180;15.414;2023-01-19T17:32:31;0.10;99.90
20162;DHT22;51382;53.180;15.414;2023-01-19T17:47:39;0.30;99.90
20162;DHT22;51382;53.180;15.414;2023-01-19T18:02:46;0.40;99.90
20162;DHT22;51382;53.180;15.414;2023-01-19T18:17:59;0.40;99.90
20162;DHT22;51382;53.180;15.414;2023-01-19T18:33:09;0.50;99.90
20162;DHT22;51382;53.180;15.414;2023-01-19T18:48:15;0.60;99.90
20162;DHT22;51382;53.180;15.414;2023-01-19T19:03:23;0.40;99.90
20162;DHT22;51382;53.180;15.414;2023-01-19T19:18:33;0.50;99.90
20162;DHT22;51382;53.180;15.414;2023-01-19T19:33:41;0.30;99.90
20162;DHT22;51382;53.180;15.414;2023-01-19T19:48:50;-0.30;99.90
20162;DHT22;51382;53.180;15.414;2023-01-19T20:04:03;-1.00;99.90
20162;DHT22;51382;53.180;15.414;2023-01-19T20:19:15;-1.30;99.90
20162;DHT22;51382;53.180;15.414;2023-01-19T20:34:25;-1.50;99.90
20162;DHT22;51382;53.180;15.414;2023-01-19T20:49:37;-1.50;99.90
20162;DHT22;51382;53.180;15.414;2023-01-19T21:04:53;-1.10;99.90
20162;DHT22;51382;53.180;15.414;2023-01-19T21:20:08;-1.00;99.90
20162;DHT22;51382;53.180;15.414;2023-01-19T21:35:23;-0.90;99.90
20162;DHT22;51382;53.180;15.414;2023-01-19T21:50:33;-0.80;99.90
20162;DHT22;51382;53.180;15.414;2023-01-19T22:05:45;-0.70;99.90
20162;DHT22;51382;53.180;15.414;2023-01-19T22:21:06;-0.60;99.90
20162;DHT22;51382;53.180;15.414;2023-01-19T22:36:13;-0.60;99.90
20162;DHT22;51382;53.180;15.414;2023-01-19T22:51:21;-0.60;99.90
20162;DHT22;51382;53.180;15.414;2023-01-19T23:06:31;-0.50;99.90
20162;DHT22;51382;53.180;15.414;2023-01-19T23:21:41;-0.30;99.90
20162;DHT22;51382;53.180;15.414;2023-01-19T23:36:49;-0.10;99.90
20162;DHT22;51382;53.180;15.414;2023-01-19T23:52:00;-0.20;99.90
